LCO435 KLAX-MHLM
Flight info
| Callsign | LCO435 |
|---|---|
| Flight time | 4h 11m |
| Altitude | 35000 |
| Route | PNDAH2 TCATE DCT AXASA UT41 CUU UJ2 MAM UT22 ILOLI UL207 CPE UM208 BZE UB753 OMOSO |
| Aircraft | B763/H-SDE3FGHIM3RWXY/LB1 |
Departure
| Time | 2026-04-27 17:15 |
|---|---|
| Airport | Los Angeles International Airport (KLAX) |
Arrival
| Time | 2026-04-27 21:26 |
|---|---|
| Airport | Ramón Villeda Morales International Airport (MHLM) |
| Time | Latitude | Longitude | Altitude | Speed | Heading |
|---|---|---|---|---|---|
| 2026-04-27 16:54 | 33.93397 | -118.38042 | 109 ft | 0 kts | 135° |
| 2026-04-27 17:06 | 33.93409 | -118.38057 | 109 ft | 4 kts | 132° |
| 2026-04-27 17:07 | 33.93429 | -118.38093 | 109 ft | 4 kts | 94° |
| 2026-04-27 17:07 | 33.93422 | -118.38112 | 109 ft | 2 kts | 39° |
| 2026-04-27 17:07 | 33.93410 | -118.38122 | 109 ft | 2 kts | 27° |
| 2026-04-27 17:07 | 33.93397 | -118.38129 | 109 ft | 2 kts | 13° |
| 2026-04-27 17:08 | 33.93383 | -118.38130 | 109 ft | 2 kts | 359° |
| 2026-04-27 17:08 | 33.93368 | -118.38128 | 109 ft | 1 kts | 1° |
| 2026-04-27 17:10 | 33.93373 | -118.38128 | 109 ft | 3 kts | 360° |
| 2026-04-27 17:10 | 33.93407 | -118.38128 | 109 ft | 5 kts | 359° |
| 2026-04-27 17:11 | 33.93449 | -118.38129 | 109 ft | 6 kts | 0° |
| 2026-04-27 17:11 | 33.93595 | -118.38130 | 107 ft | 12 kts | 343° |
| 2026-04-27 17:11 | 33.93619 | -118.38210 | 107 ft | 10 kts | 265° |
| 2026-04-27 17:12 | 33.93617 | -118.38245 | 107 ft | 0 kts | 286° |
| 2026-04-27 17:12 | 33.93619 | -118.38248 | 107 ft | 2 kts | 295° |
| 2026-04-27 17:12 | 33.93630 | -118.38261 | 107 ft | 0 kts | 323° |
| 2026-04-27 17:13 | 33.93637 | -118.38267 | 107 ft | 5 kts | 334° |
| 2026-04-27 17:13 | 33.93712 | -118.38304 | 107 ft | 15 kts | 311° |
| 2026-04-27 17:13 | 33.93716 | -118.38462 | 108 ft | 26 kts | 263° |
| 2026-04-27 17:14 | 33.93674 | -118.38870 | 111 ft | 74 kts | 264° |
| 2026-04-27 17:14 | 33.93593 | -118.39693 | 119 ft | 123 kts | 263° |
| 2026-04-27 17:14 | 33.93469 | -118.40904 | 164 ft | 164 kts | 263° |
| 2026-04-27 17:14 | 33.93333 | -118.42374 | 483 ft | 187 kts | 265° |
| 2026-04-27 17:15 | 33.93153 | -118.43890 | 1055 ft | 178 kts | 262° |
| 2026-04-27 17:15 | 33.92941 | -118.45396 | 1300 ft | 195 kts | 250° |
| 2026-04-27 17:15 | 33.92180 | -118.46824 | 1738 ft | 208 kts | 233° |
| 2026-04-27 17:15 | 33.91282 | -118.48262 | 2202 ft | 223 kts | 235° |
| 2026-04-27 17:16 | 33.90302 | -118.49811 | 2602 ft | 245 kts | 233° |
| 2026-04-27 17:16 | 33.89201 | -118.51465 | 3262 ft | 257 kts | 233° |
| 2026-04-27 17:16 | 33.88075 | -118.53161 | 4080 ft | 263 kts | 233° |
| 2026-04-27 17:16 | 33.86865 | -118.54800 | 4938 ft | 267 kts | 219° |
| 2026-04-27 17:17 | 33.85177 | -118.55749 | 5734 ft | 275 kts | 190° |
| 2026-04-27 17:17 | 33.83257 | -118.55654 | 6576 ft | 280 kts | 169° |
| 2026-04-27 17:17 | 33.81341 | -118.55155 | 7351 ft | 286 kts | 170° |
| 2026-04-27 17:18 | 33.77402 | -118.54139 | 8901 ft | 295 kts | 170° |
| 2026-04-27 17:18 | 33.75491 | -118.53632 | 9648 ft | 299 kts | 171° |
| 2026-04-27 17:18 | 33.73544 | -118.53112 | 10352 ft | 304 kts | 171° |
| 2026-04-27 17:18 | 33.71416 | -118.52466 | 10816 ft | 323 kts | 162° |
| 2026-04-27 17:19 | 33.69391 | -118.51135 | 11228 ft | 345 kts | 144° |
| 2026-04-27 17:19 | 33.67679 | -118.49019 | 11679 ft | 366 kts | 127° |
| 2026-04-27 17:19 | 33.66455 | -118.46267 | 12082 ft | 386 kts | 111° |
| 2026-04-27 17:19 | 33.65526 | -118.43166 | 12563 ft | 401 kts | 113° |
| 2026-04-27 17:20 | 33.64366 | -118.40118 | 13410 ft | 405 kts | 117° |
| 2026-04-27 17:20 | 33.63158 | -118.37079 | 14176 ft | 411 kts | 118° |
| 2026-04-27 17:20 | 33.61871 | -118.33987 | 15032 ft | 415 kts | 118° |
| 2026-04-27 17:20 | 33.60569 | -118.30903 | 15738 ft | 422 kts | 119° |
| 2026-04-27 17:21 | 33.59219 | -118.27739 | 16495 ft | 427 kts | 120° |
| 2026-04-27 17:21 | 33.57849 | -118.24552 | 17210 ft | 432 kts | 120° |
| 2026-04-27 17:21 | 33.56472 | -118.21357 | 17966 ft | 436 kts | 120° |
| 2026-04-27 17:21 | 33.55076 | -118.18128 | 18572 ft | 443 kts | 120° |
| 2026-04-27 17:22 | 33.53645 | -118.14819 | 19337 ft | 446 kts | 121° |
| 2026-04-27 17:22 | 33.52221 | -118.11507 | 19955 ft | 453 kts | 121° |
| 2026-04-27 17:22 | 33.50782 | -118.08161 | 20624 ft | 457 kts | 121° |
| 2026-04-27 17:22 | 33.49306 | -118.04734 | 21271 ft | 462 kts | 121° |
| 2026-04-27 17:23 | 33.47774 | -118.01363 | 21876 ft | 465 kts | 127° |
| 2026-04-27 17:23 | 33.45866 | -117.98275 | 22479 ft | 462 kts | 137° |
| 2026-04-27 17:23 | 33.43581 | -117.95602 | 23063 ft | 460 kts | 145° |
| 2026-04-27 17:23 | 33.41324 | -117.93208 | 23707 ft | 462 kts | 144° |
| 2026-04-27 17:24 | 33.38927 | -117.90660 | 24225 ft | 468 kts | 145° |
| 2026-04-27 17:24 | 33.36463 | -117.88041 | 24752 ft | 473 kts | 145° |
| 2026-04-27 17:24 | 33.33994 | -117.85422 | 25392 ft | 476 kts | 145° |
| 2026-04-27 17:24 | 33.31519 | -117.82801 | 25803 ft | 483 kts | 146° |
| 2026-04-27 17:25 | 33.28996 | -117.80127 | 26413 ft | 485 kts | 146° |
| 2026-04-27 17:25 | 33.26457 | -117.77443 | 26918 ft | 489 kts | 146° |
| 2026-04-27 17:25 | 33.23915 | -117.74757 | 27375 ft | 494 kts | 146° |
| 2026-04-27 17:25 | 33.21327 | -117.72025 | 27876 ft | 498 kts | 146° |
| 2026-04-27 17:26 | 33.18873 | -117.69212 | 28341 ft | 509 kts | 139° |
| 2026-04-27 17:26 | 33.16650 | -117.65836 | 28825 ft | 523 kts | 130° |
| 2026-04-27 17:26 | 33.14823 | -117.62045 | 29280 ft | 535 kts | 121° |
| 2026-04-27 17:26 | 33.13429 | -117.57906 | 29710 ft | 546 kts | 113° |
| 2026-04-27 17:27 | 33.12252 | -117.53632 | 30096 ft | 549 kts | 114° |
| 2026-04-27 17:27 | 33.11010 | -117.49281 | 30654 ft | 549 kts | 114° |
| 2026-04-27 17:27 | 33.09782 | -117.45021 | 31269 ft | 547 kts | 115° |
| 2026-04-27 17:27 | 33.08534 | -117.40737 | 31842 ft | 546 kts | 115° |
| 2026-04-27 17:28 | 33.07265 | -117.36423 | 32280 ft | 547 kts | 115° |
| 2026-04-27 17:28 | 33.06004 | -117.32147 | 32814 ft | 546 kts | 116° |
| 2026-04-27 17:28 | 33.03484 | -117.23644 | 33743 ft | 544 kts | 116° |
| 2026-04-27 17:29 | 33.02222 | -117.19400 | 34186 ft | 543 kts | 117° |
| 2026-04-27 17:29 | 33.00974 | -117.15211 | 34580 ft | 541 kts | 117° |
| 2026-04-27 17:29 | 32.99710 | -117.10976 | 34878 ft | 541 kts | 117° |
| 2026-04-27 17:29 | 32.98452 | -117.06766 | 35064 ft | 538 kts | 117° |
| 2026-04-27 17:30 | 32.97192 | -117.02557 | 35052 ft | 535 kts | 117° |
| 2026-04-27 17:30 | 32.93428 | -116.90031 | 35061 ft | 540 kts | 117° |
| 2026-04-27 17:31 | 32.90891 | -116.81609 | 35059 ft | 538 kts | 117° |
| 2026-04-27 17:31 | 32.88380 | -116.73298 | 35073 ft | 539 kts | 117° |
| 2026-04-27 17:32 | 32.84562 | -116.60697 | 35058 ft | 539 kts | 117° |
| 2026-04-27 17:33 | 32.82023 | -116.52351 | 35055 ft | 538 kts | 118° |
| 2026-04-27 17:33 | 32.79406 | -116.44028 | 35052 ft | 537 kts | 119° |
| 2026-04-27 17:34 | 32.76712 | -116.35744 | 35048 ft | 538 kts | 119° |
| 2026-04-27 17:34 | 32.74018 | -116.27475 | 35029 ft | 537 kts | 120° |
| 2026-04-27 17:35 | 32.71374 | -116.19383 | 35022 ft | 537 kts | 120° |
| 2026-04-27 17:35 | 32.68662 | -116.11099 | 35036 ft | 539 kts | 120° |
| 2026-04-27 17:36 | 32.65952 | -116.02846 | 35039 ft | 538 kts | 119° |
| 2026-04-27 17:36 | 32.63251 | -115.94637 | 35021 ft | 539 kts | 120° |
| 2026-04-27 17:37 | 32.60859 | -115.87387 | 35038 ft | 539 kts | 120° |
| 2026-04-27 17:37 | 32.58417 | -115.80002 | 35024 ft | 540 kts | 120° |
| 2026-04-27 17:38 | 32.55820 | -115.72160 | 35016 ft | 537 kts | 120° |
| 2026-04-27 17:38 | 32.53102 | -115.63986 | 35017 ft | 539 kts | 120° |
| 2026-04-27 17:39 | 32.50465 | -115.56072 | 35020 ft | 540 kts | 120° |
| 2026-04-27 17:39 | 32.47780 | -115.48028 | 35015 ft | 537 kts | 120° |
| 2026-04-27 17:40 | 32.45034 | -115.39829 | 35015 ft | 537 kts | 120° |
| 2026-04-27 17:40 | 32.42275 | -115.31609 | 34986 ft | 538 kts | 120° |
| 2026-04-27 17:41 | 32.39516 | -115.23410 | 34987 ft | 536 kts | 121° |
| 2026-04-27 17:41 | 32.36772 | -115.15276 | 34994 ft | 537 kts | 120° |
| 2026-04-27 17:42 | 32.34031 | -115.07169 | 34996 ft | 537 kts | 121° |
| 2026-04-27 17:42 | 32.31196 | -114.99099 | 34987 ft | 533 kts | 122° |
| 2026-04-27 17:43 | 32.28437 | -114.91307 | 34991 ft | 535 kts | 122° |
| 2026-04-27 17:43 | 32.25567 | -114.83216 | 34990 ft | 537 kts | 121° |
| 2026-04-27 17:44 | 32.22681 | -114.75095 | 34988 ft | 535 kts | 121° |
| 2026-04-27 17:44 | 32.19807 | -114.67024 | 34993 ft | 534 kts | 122° |
| 2026-04-27 17:45 | 32.16921 | -114.58952 | 34988 ft | 536 kts | 121° |
| 2026-04-27 17:45 | 32.14001 | -114.50797 | 34998 ft | 537 kts | 121° |
| 2026-04-27 17:46 | 32.11103 | -114.42716 | 34997 ft | 536 kts | 121° |
| 2026-04-27 17:46 | 32.08187 | -114.34611 | 34999 ft | 535 kts | 122° |
| 2026-04-27 17:47 | 32.05273 | -114.26533 | 34981 ft | 536 kts | 122° |
| 2026-04-27 17:47 | 32.02455 | -114.18739 | 34990 ft | 537 kts | 122° |
| 2026-04-27 17:48 | 31.99537 | -114.10681 | 34970 ft | 534 kts | 122° |
| 2026-04-27 17:48 | 31.96610 | -114.02625 | 34957 ft | 535 kts | 122° |
| 2026-04-27 17:49 | 31.93683 | -113.94589 | 34965 ft | 537 kts | 122° |
| 2026-04-27 17:49 | 31.90742 | -113.86531 | 34959 ft | 539 kts | 122° |
| 2026-04-27 17:50 | 31.87761 | -113.78375 | 34931 ft | 537 kts | 121° |
| 2026-04-27 17:50 | 31.84926 | -113.70643 | 35056 ft | 538 kts | 122° |
| 2026-04-27 17:50 | 31.83519 | -113.66807 | 34976 ft | 537 kts | 122° |
| 2026-04-27 17:51 | 31.80706 | -113.59166 | 34995 ft | 536 kts | 122° |
| 2026-04-27 17:51 | 31.77718 | -113.51067 | 35003 ft | 540 kts | 122° |
| 2026-04-27 17:52 | 31.74749 | -113.43031 | 35011 ft | 541 kts | 122° |
| 2026-04-27 17:52 | 31.71752 | -113.34939 | 35010 ft | 539 kts | 122° |
| 2026-04-27 17:53 | 31.68768 | -113.26902 | 34982 ft | 538 kts | 122° |
| 2026-04-27 17:53 | 31.65765 | -113.18834 | 34969 ft | 539 kts | 122° |
| 2026-04-27 17:54 | 31.62763 | -113.10789 | 34977 ft | 539 kts | 122° |
| 2026-04-27 17:54 | 31.59762 | -113.02766 | 34973 ft | 540 kts | 122° |
| 2026-04-27 17:55 | 31.56845 | -112.94982 | 34989 ft | 544 kts | 122° |
| 2026-04-27 17:55 | 31.53822 | -112.86933 | 34991 ft | 540 kts | 122° |
| 2026-04-27 17:56 | 31.50887 | -112.79142 | 34994 ft | 543 kts | 122° |
| 2026-04-27 17:56 | 31.47828 | -112.71030 | 34999 ft | 542 kts | 122° |
| 2026-04-27 17:57 | 31.44879 | -112.63229 | 34998 ft | 539 kts | 122° |
| 2026-04-27 17:57 | 31.42053 | -112.55780 | 35013 ft | 542 kts | 123° |
| 2026-04-27 17:58 | 31.39016 | -112.47781 | 35011 ft | 542 kts | 122° |
| 2026-04-27 17:58 | 31.36134 | -112.40214 | 35013 ft | 543 kts | 123° |
| 2026-04-27 17:59 | 31.33080 | -112.32210 | 34983 ft | 542 kts | 123° |
| 2026-04-27 17:59 | 31.29993 | -112.24140 | 34992 ft | 541 kts | 123° |
| 2026-04-27 18:00 | 31.26955 | -112.16215 | 35007 ft | 543 kts | 123° |
| 2026-04-27 18:00 | 31.23933 | -112.08344 | 34998 ft | 541 kts | 123° |
| 2026-04-27 18:01 | 31.21039 | -112.00835 | 35015 ft | 545 kts | 123° |
| 2026-04-27 18:01 | 31.18014 | -111.92987 | 35011 ft | 543 kts | 123° |
| 2026-04-27 18:02 | 31.15005 | -111.85208 | 35025 ft | 542 kts | 123° |
| 2026-04-27 18:02 | 31.11976 | -111.77393 | 35040 ft | 544 kts | 123° |
| 2026-04-27 18:03 | 31.08974 | -111.69659 | 35049 ft | 542 kts | 123° |
| 2026-04-27 18:03 | 31.05940 | -111.61872 | 35064 ft | 546 kts | 123° |
| 2026-04-27 18:04 | 31.02817 | -111.53858 | 35070 ft | 541 kts | 123° |
| 2026-04-27 18:04 | 30.99870 | -111.46325 | 35078 ft | 541 kts | 123° |
| 2026-04-27 18:05 | 30.96836 | -111.38586 | 35092 ft | 546 kts | 123° |
| 2026-04-27 18:05 | 30.93736 | -111.30685 | 35063 ft | 543 kts | 124° |
| 2026-04-27 18:06 | 30.90711 | -111.22901 | 35076 ft | 541 kts | 123° |
| 2026-04-27 18:06 | 30.87620 | -111.14912 | 35089 ft | 543 kts | 123° |
| 2026-04-27 18:07 | 30.84573 | -111.07051 | 35082 ft | 545 kts | 123° |
| 2026-04-27 18:07 | 30.81464 | -110.99045 | 35091 ft | 544 kts | 123° |
| 2026-04-27 18:08 | 30.78339 | -110.91026 | 35101 ft | 545 kts | 123° |
| 2026-04-27 18:08 | 30.75209 | -110.83012 | 35106 ft | 541 kts | 123° |
| 2026-04-27 18:09 | 30.72100 | -110.75080 | 35114 ft | 543 kts | 123° |
| 2026-04-27 18:09 | 30.69041 | -110.67288 | 35121 ft | 546 kts | 123° |
| 2026-04-27 18:10 | 30.66001 | -110.59554 | 35123 ft | 544 kts | 123° |
| 2026-04-27 18:10 | 30.62870 | -110.51611 | 35127 ft | 542 kts | 122° |
| 2026-04-27 18:11 | 30.59796 | -110.43832 | 35125 ft | 543 kts | 123° |
| 2026-04-27 18:11 | 30.56786 | -110.36221 | 35133 ft | 542 kts | 123° |
| 2026-04-27 18:12 | 30.53722 | -110.28503 | 35107 ft | 542 kts | 123° |
| 2026-04-27 18:12 | 30.50561 | -110.20551 | 35100 ft | 542 kts | 124° |
| 2026-04-27 18:13 | 30.47444 | -110.12724 | 35098 ft | 541 kts | 123° |
| 2026-04-27 18:13 | 30.44290 | -110.04828 | 35099 ft | 541 kts | 123° |
| 2026-04-27 18:14 | 30.41129 | -109.96925 | 35100 ft | 542 kts | 123° |
| 2026-04-27 18:14 | 30.38027 | -109.89190 | 35119 ft | 542 kts | 123° |
| 2026-04-27 18:15 | 30.34866 | -109.81327 | 35129 ft | 544 kts | 123° |
| 2026-04-27 18:15 | 30.31656 | -109.73349 | 35130 ft | 542 kts | 123° |
| 2026-04-27 18:16 | 30.28626 | -109.65842 | 35138 ft | 541 kts | 123° |
| 2026-04-27 18:16 | 30.25505 | -109.58128 | 35153 ft | 543 kts | 123° |
| 2026-04-27 18:17 | 30.22308 | -109.50236 | 35168 ft | 540 kts | 123° |
| 2026-04-27 18:17 | 30.19185 | -109.42544 | 35169 ft | 541 kts | 123° |
| 2026-04-27 18:18 | 30.16073 | -109.34899 | 35147 ft | 541 kts | 123° |
| 2026-04-27 18:18 | 30.12892 | -109.27095 | 35100 ft | 540 kts | 123° |
| 2026-04-27 18:19 | 30.09683 | -109.19242 | 35086 ft | 539 kts | 123° |
| 2026-04-27 18:19 | 30.06605 | -109.11726 | 35105 ft | 540 kts | 123° |
| 2026-04-27 18:20 | 30.03490 | -109.04131 | 35108 ft | 537 kts | 123° |
| 2026-04-27 18:20 | 30.00279 | -108.96323 | 35136 ft | 539 kts | 123° |
| 2026-04-27 18:21 | 29.97232 | -108.88931 | 35157 ft | 541 kts | 123° |
| 2026-04-27 18:21 | 29.94004 | -108.81107 | 35175 ft | 538 kts | 123° |
| 2026-04-27 18:22 | 29.90771 | -108.73289 | 35198 ft | 539 kts | 123° |
| 2026-04-27 18:22 | 29.87552 | -108.65527 | 35221 ft | 538 kts | 122° |
| 2026-04-27 18:23 | 29.84314 | -108.57729 | 35233 ft | 538 kts | 123° |
| 2026-04-27 18:23 | 29.81084 | -108.49970 | 35258 ft | 539 kts | 123° |
| 2026-04-27 18:24 | 29.77840 | -108.42192 | 35270 ft | 538 kts | 123° |
| 2026-04-27 18:24 | 29.74602 | -108.34444 | 35285 ft | 536 kts | 123° |
| 2026-04-27 18:25 | 29.71442 | -108.26905 | 35271 ft | 536 kts | 123° |
| 2026-04-27 18:25 | 29.68250 | -108.19301 | 35273 ft | 539 kts | 123° |
| 2026-04-27 18:26 | 29.65000 | -108.11565 | 35273 ft | 534 kts | 122° |
| 2026-04-27 18:26 | 29.61811 | -108.04002 | 35297 ft | 534 kts | 123° |
| 2026-04-27 18:27 | 29.58571 | -107.96330 | 35309 ft | 535 kts | 122° |
| 2026-04-27 18:27 | 29.55458 | -107.88967 | 35307 ft | 532 kts | 123° |
| 2026-04-27 18:28 | 29.52214 | -107.81318 | 35310 ft | 534 kts | 122° |
| 2026-04-27 18:28 | 29.48976 | -107.73691 | 35308 ft | 531 kts | 122° |
| 2026-04-27 18:29 | 29.45733 | -107.66074 | 35315 ft | 532 kts | 122° |
| 2026-04-27 18:29 | 29.42491 | -107.58472 | 35322 ft | 533 kts | 122° |
| 2026-04-27 18:30 | 29.39219 | -107.50809 | 35328 ft | 532 kts | 122° |
| 2026-04-27 18:30 | 29.36064 | -107.43443 | 35328 ft | 531 kts | 123° |
| 2026-04-27 18:31 | 29.32807 | -107.35851 | 35333 ft | 531 kts | 122° |
| 2026-04-27 18:31 | 29.29566 | -107.28307 | 35325 ft | 528 kts | 123° |
| 2026-04-27 18:32 | 29.26359 | -107.20862 | 35315 ft | 531 kts | 122° |
| 2026-04-27 18:32 | 29.23097 | -107.13300 | 35301 ft | 530 kts | 123° |
| 2026-04-27 18:33 | 29.19839 | -107.05762 | 35320 ft | 527 kts | 123° |
| 2026-04-27 18:33 | 29.16576 | -106.98228 | 35321 ft | 529 kts | 122° |
| 2026-04-27 18:34 | 29.13316 | -106.90715 | 35329 ft | 528 kts | 123° |
| 2026-04-27 18:34 | 29.10051 | -106.83202 | 35323 ft | 529 kts | 122° |
| 2026-04-27 18:35 | 29.06763 | -106.75657 | 35343 ft | 529 kts | 123° |
| 2026-04-27 18:35 | 29.03476 | -106.68124 | 35350 ft | 529 kts | 122° |
| 2026-04-27 18:36 | 29.00221 | -106.60678 | 35326 ft | 527 kts | 122° |
| 2026-04-27 18:36 | 28.96918 | -106.53139 | 35320 ft | 529 kts | 123° |
| 2026-04-27 18:37 | 28.93632 | -106.45654 | 35321 ft | 527 kts | 123° |
| 2026-04-27 18:37 | 28.90341 | -106.38168 | 35285 ft | 529 kts | 123° |
| 2026-04-27 18:38 | 28.87041 | -106.30680 | 35248 ft | 529 kts | 123° |
| 2026-04-27 18:38 | 28.83725 | -106.23168 | 35222 ft | 529 kts | 123° |
| 2026-04-27 18:39 | 28.80427 | -106.15712 | 35210 ft | 529 kts | 123° |
| 2026-04-27 18:39 | 28.77103 | -106.08209 | 35168 ft | 528 kts | 123° |
| 2026-04-27 18:40 | 28.73797 | -106.00759 | 35130 ft | 529 kts | 123° |
| 2026-04-27 18:40 | 28.70596 | -105.93218 | 35117 ft | 532 kts | 118° |
| 2026-04-27 18:41 | 28.67750 | -105.85438 | 35119 ft | 534 kts | 118° |
| 2026-04-27 18:41 | 28.64873 | -105.77665 | 35125 ft | 536 kts | 118° |
| 2026-04-27 18:42 | 28.62446 | -105.71129 | 35124 ft | 535 kts | 118° |
| 2026-04-27 18:42 | 28.59067 | -105.62054 | 35130 ft | 535 kts | 118° |
| 2026-04-27 18:43 | 28.56173 | -105.54309 | 35125 ft | 536 kts | 118° |
| 2026-04-27 18:43 | 28.53238 | -105.46468 | 35117 ft | 537 kts | 118° |
| 2026-04-27 18:44 | 28.50332 | -105.38717 | 35122 ft | 535 kts | 117° |
| 2026-04-27 18:44 | 28.47401 | -105.30924 | 35122 ft | 535 kts | 118° |
| 2026-04-27 18:45 | 28.44467 | -105.23138 | 35140 ft | 536 kts | 118° |
| 2026-04-27 18:45 | 28.41585 | -105.15507 | 35148 ft | 538 kts | 118° |
| 2026-04-27 18:46 | 28.38634 | -105.07706 | 35146 ft | 537 kts | 117° |
| 2026-04-27 18:46 | 28.35662 | -104.99867 | 35159 ft | 538 kts | 118° |
| 2026-04-27 18:47 | 28.32708 | -104.92091 | 35168 ft | 538 kts | 118° |
| 2026-04-27 18:47 | 28.29788 | -104.84421 | 35186 ft | 536 kts | 117° |
| 2026-04-27 18:48 | 28.26844 | -104.76697 | 35203 ft | 538 kts | 117° |
| 2026-04-27 18:48 | 28.23860 | -104.68892 | 35214 ft | 537 kts | 117° |
| 2026-04-27 18:49 | 28.20893 | -104.61141 | 35208 ft | 535 kts | 118° |
| 2026-04-27 18:49 | 28.17928 | -104.53417 | 35208 ft | 535 kts | 118° |
| 2026-04-27 18:50 | 28.14947 | -104.45666 | 35203 ft | 535 kts | 117° |
| 2026-04-27 18:50 | 28.12023 | -104.38079 | 35202 ft | 534 kts | 117° |
| 2026-04-27 18:51 | 28.09050 | -104.30379 | 35181 ft | 534 kts | 118° |
| 2026-04-27 18:51 | 28.06079 | -104.22699 | 35188 ft | 532 kts | 117° |
| 2026-04-27 18:52 | 28.03099 | -104.15011 | 35180 ft | 533 kts | 117° |
| 2026-04-27 18:53 | 27.98631 | -104.03511 | 35164 ft | 530 kts | 118° |
| 2026-04-27 18:53 | 27.95665 | -103.95898 | 35169 ft | 530 kts | 118° |
| 2026-04-27 18:54 | 27.92693 | -103.88285 | 35182 ft | 530 kts | 118° |
| 2026-04-27 18:54 | 27.89706 | -103.80647 | 35194 ft | 531 kts | 118° |
| 2026-04-27 18:55 | 27.86727 | -103.73047 | 35196 ft | 530 kts | 117° |
| 2026-04-27 18:55 | 27.83717 | -103.65379 | 35185 ft | 530 kts | 117° |
| 2026-04-27 18:56 | 27.80742 | -103.57812 | 35171 ft | 528 kts | 117° |
| 2026-04-27 18:56 | 27.77751 | -103.50227 | 35171 ft | 528 kts | 117° |
| 2026-04-27 18:57 | 27.74772 | -103.42683 | 35160 ft | 529 kts | 118° |
| 2026-04-27 18:57 | 27.71782 | -103.35126 | 35156 ft | 529 kts | 117° |
| 2026-04-27 18:58 | 27.68770 | -103.27526 | 35141 ft | 528 kts | 118° |
| 2026-04-27 18:58 | 27.65768 | -103.19970 | 35136 ft | 529 kts | 118° |
| 2026-04-27 18:59 | 27.62759 | -103.12408 | 35135 ft | 528 kts | 118° |
| 2026-04-27 18:59 | 27.59756 | -103.04878 | 35133 ft | 529 kts | 118° |
| 2026-04-27 19:00 | 27.56744 | -102.97337 | 35135 ft | 527 kts | 118° |
| 2026-04-27 19:00 | 27.53724 | -102.89792 | 35153 ft | 528 kts | 118° |
| 2026-04-27 19:01 | 27.50685 | -102.82212 | 35165 ft | 528 kts | 118° |
| 2026-04-27 19:01 | 27.47678 | -102.74728 | 35171 ft | 528 kts | 118° |
| 2026-04-27 19:02 | 27.44632 | -102.67157 | 35172 ft | 528 kts | 118° |
| 2026-04-27 19:02 | 27.41603 | -102.59647 | 35164 ft | 527 kts | 118° |
| 2026-04-27 19:03 | 27.38548 | -102.52089 | 35161 ft | 528 kts | 117° |
| 2026-04-27 19:03 | 27.35502 | -102.44560 | 35157 ft | 527 kts | 117° |
| 2026-04-27 19:04 | 27.32465 | -102.37072 | 35145 ft | 528 kts | 117° |
| 2026-04-27 19:04 | 27.29402 | -102.29534 | 35091 ft | 527 kts | 118° |
| 2026-04-27 19:05 | 27.26399 | -102.22156 | 35071 ft | 527 kts | 118° |
| 2026-04-27 19:05 | 27.23344 | -102.14666 | 35101 ft | 526 kts | 118° |
| 2026-04-27 19:06 | 27.20310 | -102.07239 | 35135 ft | 526 kts | 118° |
| 2026-04-27 19:06 | 27.17246 | -101.99753 | 35141 ft | 525 kts | 118° |
| 2026-04-27 19:07 | 27.14196 | -101.92316 | 35089 ft | 525 kts | 118° |
| 2026-04-27 19:07 | 27.11137 | -101.84869 | 35037 ft | 525 kts | 118° |
| 2026-04-27 19:08 | 27.08072 | -101.77422 | 34990 ft | 524 kts | 118° |
| 2026-04-27 19:08 | 27.05009 | -101.69995 | 34966 ft | 525 kts | 118° |
| 2026-04-27 19:09 | 27.01943 | -101.62571 | 34957 ft | 524 kts | 118° |
| 2026-04-27 19:09 | 26.98871 | -101.55148 | 34950 ft | 522 kts | 118° |
| 2026-04-27 19:10 | 26.95817 | -101.47780 | 34956 ft | 524 kts | 117° |
| 2026-04-27 19:10 | 26.93225 | -101.40069 | 34969 ft | 526 kts | 112° |
| 2026-04-27 19:11 | 26.90743 | -101.32392 | 34976 ft | 525 kts | 113° |
| 2026-04-27 19:11 | 26.88253 | -101.24746 | 35013 ft | 526 kts | 113° |
| 2026-04-27 19:12 | 26.85734 | -101.17036 | 35015 ft | 526 kts | 112° |
| 2026-04-27 19:12 | 26.83213 | -101.09340 | 35009 ft | 525 kts | 112° |
| 2026-04-27 19:13 | 26.80703 | -101.01696 | 34972 ft | 525 kts | 113° |
| 2026-04-27 19:13 | 26.78181 | -100.94035 | 34944 ft | 525 kts | 112° |
| 2026-04-27 19:14 | 26.75647 | -100.86349 | 34938 ft | 525 kts | 112° |
| 2026-04-27 19:14 | 26.73115 | -100.78687 | 34919 ft | 524 kts | 112° |
| 2026-04-27 19:15 | 26.70576 | -100.71019 | 34917 ft | 524 kts | 112° |
| 2026-04-27 19:15 | 26.68041 | -100.63376 | 34911 ft | 525 kts | 112° |
| 2026-04-27 19:16 | 26.65514 | -100.55769 | 34904 ft | 523 kts | 112° |
| 2026-04-27 19:16 | 26.62965 | -100.48113 | 34905 ft | 524 kts | 112° |
| 2026-04-27 19:17 | 26.60424 | -100.40498 | 34902 ft | 525 kts | 112° |
| 2026-04-27 19:17 | 26.57871 | -100.32864 | 34886 ft | 524 kts | 113° |
| 2026-04-27 19:18 | 26.55319 | -100.25247 | 34878 ft | 524 kts | 113° |
| 2026-04-27 19:18 | 26.53025 | -100.17516 | 34882 ft | 526 kts | 107° |
| 2026-04-27 19:19 | 26.50999 | -100.09631 | 34866 ft | 526 kts | 108° |
| 2026-04-27 19:19 | 26.48971 | -100.01829 | 34854 ft | 524 kts | 108° |
| 2026-04-27 19:20 | 26.46931 | -99.94009 | 34859 ft | 524 kts | 108° |
| 2026-04-27 19:20 | 26.44887 | -99.86206 | 34862 ft | 525 kts | 108° |
| 2026-04-27 19:21 | 26.42834 | -99.78387 | 34853 ft | 525 kts | 108° |
| 2026-04-27 19:21 | 26.40783 | -99.70593 | 34843 ft | 525 kts | 108° |
| 2026-04-27 19:22 | 26.38722 | -99.62777 | 34836 ft | 526 kts | 108° |
| 2026-04-27 19:22 | 26.36657 | -99.54970 | 34828 ft | 525 kts | 108° |
| 2026-04-27 19:23 | 26.34592 | -99.47178 | 34821 ft | 524 kts | 108° |
| 2026-04-27 19:23 | 26.32518 | -99.39374 | 34821 ft | 524 kts | 108° |
| 2026-04-27 19:24 | 26.30440 | -99.31570 | 34814 ft | 524 kts | 108° |
| 2026-04-27 19:24 | 26.28420 | -99.24001 | 34817 ft | 523 kts | 108° |
| 2026-04-27 19:25 | 26.26351 | -99.16266 | 34788 ft | 521 kts | 108° |
| 2026-04-27 19:25 | 26.24275 | -99.08525 | 34807 ft | 526 kts | 108° |
| 2026-04-27 19:26 | 26.22179 | -99.00728 | 34806 ft | 523 kts | 108° |
| 2026-04-27 19:26 | 26.20089 | -98.92968 | 34801 ft | 523 kts | 108° |
| 2026-04-27 19:27 | 26.17985 | -98.85178 | 34804 ft | 523 kts | 108° |
| 2026-04-27 19:27 | 26.15894 | -98.77457 | 34805 ft | 523 kts | 108° |
| 2026-04-27 19:28 | 26.13788 | -98.69691 | 34812 ft | 524 kts | 108° |
| 2026-04-27 19:28 | 26.11672 | -98.61916 | 34810 ft | 523 kts | 108° |
| 2026-04-27 19:29 | 26.09571 | -98.54218 | 34820 ft | 524 kts | 108° |
| 2026-04-27 19:29 | 26.07445 | -98.46444 | 34830 ft | 524 kts | 108° |
| 2026-04-27 19:30 | 26.05324 | -98.38708 | 34839 ft | 524 kts | 108° |
| 2026-04-27 19:30 | 26.03197 | -98.30970 | 34829 ft | 522 kts | 108° |
| 2026-04-27 19:31 | 26.01063 | -98.23242 | 34836 ft | 524 kts | 109° |
| 2026-04-27 19:31 | 25.98538 | -98.15658 | 34838 ft | 523 kts | 111° |
| 2026-04-27 19:32 | 25.96003 | -98.08134 | 34845 ft | 522 kts | 112° |
| 2026-04-27 19:32 | 25.93447 | -98.00549 | 34838 ft | 522 kts | 112° |
| 2026-04-27 19:33 | 25.90902 | -97.93002 | 34833 ft | 522 kts | 112° |
| 2026-04-27 19:33 | 25.88349 | -97.85460 | 34834 ft | 521 kts | 111° |
| 2026-04-27 19:34 | 25.85785 | -97.77918 | 34826 ft | 523 kts | 111° |
| 2026-04-27 19:34 | 25.83213 | -97.70364 | 34837 ft | 523 kts | 111° |
| 2026-04-27 19:35 | 25.80640 | -97.62826 | 34844 ft | 523 kts | 111° |
| 2026-04-27 19:35 | 25.78044 | -97.55231 | 34851 ft | 524 kts | 112° |
| 2026-04-27 19:36 | 25.74725 | -97.48090 | 34857 ft | 521 kts | 122° |
| 2026-04-27 19:36 | 25.71076 | -97.41160 | 34857 ft | 521 kts | 122° |
| 2026-04-27 19:37 | 25.67391 | -97.34222 | 34851 ft | 521 kts | 122° |
| 2026-04-27 19:37 | 25.63721 | -97.27335 | 34839 ft | 520 kts | 122° |
| 2026-04-27 19:38 | 25.60022 | -97.20410 | 34835 ft | 521 kts | 122° |
| 2026-04-27 19:38 | 25.56345 | -97.13540 | 34834 ft | 520 kts | 122° |
| 2026-04-27 19:39 | 25.52761 | -97.06852 | 34838 ft | 520 kts | 122° |
| 2026-04-27 19:39 | 25.49056 | -96.99944 | 34842 ft | 520 kts | 122° |
| 2026-04-27 19:40 | 25.45368 | -96.93081 | 34844 ft | 521 kts | 122° |
| 2026-04-27 19:40 | 25.41668 | -96.86203 | 34853 ft | 521 kts | 122° |
| 2026-04-27 19:41 | 25.37958 | -96.79318 | 34852 ft | 520 kts | 122° |
| 2026-04-27 19:41 | 25.34258 | -96.72459 | 34853 ft | 520 kts | 122° |
| 2026-04-27 19:42 | 25.30623 | -96.65734 | 34859 ft | 519 kts | 122° |
| 2026-04-27 19:42 | 25.26948 | -96.58946 | 34864 ft | 519 kts | 122° |
| 2026-04-27 19:43 | 25.23261 | -96.52141 | 34866 ft | 518 kts | 122° |
| 2026-04-27 19:43 | 25.19539 | -96.45285 | 34865 ft | 520 kts | 122° |
| 2026-04-27 19:44 | 25.15831 | -96.38463 | 34862 ft | 519 kts | 122° |
| 2026-04-27 19:44 | 25.12114 | -96.31634 | 34855 ft | 518 kts | 122° |
| 2026-04-27 19:45 | 25.08585 | -96.25159 | 34859 ft | 518 kts | 122° |
| 2026-04-27 19:45 | 25.04938 | -96.18480 | 34865 ft | 520 kts | 122° |
| 2026-04-27 19:46 | 25.01233 | -96.11702 | 34862 ft | 518 kts | 122° |
| 2026-04-27 19:46 | 24.97508 | -96.04896 | 34866 ft | 518 kts | 122° |
| 2026-04-27 19:47 | 24.93782 | -95.98099 | 34866 ft | 518 kts | 122° |
| 2026-04-27 19:47 | 24.90047 | -95.91295 | 34869 ft | 517 kts | 122° |
| 2026-04-27 19:48 | 24.86313 | -95.84505 | 34867 ft | 517 kts | 122° |
| 2026-04-27 19:48 | 24.82679 | -95.77903 | 34866 ft | 517 kts | 122° |
| 2026-04-27 19:49 | 24.78989 | -95.71213 | 34869 ft | 517 kts | 122° |
| 2026-04-27 19:49 | 24.75250 | -95.64443 | 34876 ft | 518 kts | 122° |
| 2026-04-27 19:50 | 24.71584 | -95.57812 | 34871 ft | 517 kts | 122° |
| 2026-04-27 19:50 | 24.67838 | -95.51050 | 34879 ft | 517 kts | 122° |
| 2026-04-27 19:51 | 24.64102 | -95.44311 | 34881 ft | 517 kts | 122° |
| 2026-04-27 19:51 | 24.60359 | -95.37573 | 34882 ft | 517 kts | 122° |
| 2026-04-27 19:52 | 24.56601 | -95.30814 | 34877 ft | 516 kts | 122° |
| 2026-04-27 19:52 | 24.52858 | -95.24093 | 34876 ft | 517 kts | 122° |
| 2026-04-27 19:53 | 24.47218 | -95.13984 | 34878 ft | 517 kts | 122° |
| 2026-04-27 19:53 | 24.43445 | -95.07237 | 34882 ft | 518 kts | 122° |
| 2026-04-27 19:54 | 24.39676 | -95.00509 | 34882 ft | 517 kts | 122° |
| 2026-04-27 19:54 | 24.35903 | -94.93784 | 34888 ft | 516 kts | 122° |
| 2026-04-27 19:55 | 24.32149 | -94.87099 | 34885 ft | 517 kts | 122° |
| 2026-04-27 19:55 | 24.28389 | -94.80415 | 34892 ft | 516 kts | 122° |
| 2026-04-27 19:56 | 24.24671 | -94.73814 | 34893 ft | 516 kts | 122° |
| 2026-04-27 19:56 | 24.21008 | -94.67322 | 34895 ft | 515 kts | 122° |
| 2026-04-27 19:57 | 24.17246 | -94.60659 | 34897 ft | 515 kts | 122° |
| 2026-04-27 19:57 | 24.13473 | -94.53986 | 34899 ft | 515 kts | 122° |
| 2026-04-27 19:58 | 24.09703 | -94.47324 | 34899 ft | 516 kts | 122° |
| 2026-04-27 19:58 | 24.05902 | -94.40615 | 34899 ft | 516 kts | 122° |
| 2026-04-27 19:59 | 24.02105 | -94.33923 | 34901 ft | 516 kts | 122° |
| 2026-04-27 19:59 | 23.98396 | -94.27393 | 34900 ft | 515 kts | 122° |
| 2026-04-27 20:00 | 23.94606 | -94.20731 | 34904 ft | 516 kts | 122° |
| 2026-04-27 20:00 | 23.90810 | -94.14069 | 34902 ft | 516 kts | 122° |
| 2026-04-27 20:01 | 23.87012 | -94.07410 | 34897 ft | 515 kts | 122° |
| 2026-04-27 20:01 | 23.83233 | -94.00793 | 34893 ft | 515 kts | 122° |
| 2026-04-27 20:02 | 23.79425 | -93.94137 | 34885 ft | 515 kts | 122° |
| 2026-04-27 20:02 | 23.75663 | -93.87564 | 34888 ft | 515 kts | 122° |
| 2026-04-27 20:03 | 23.71865 | -93.80939 | 34892 ft | 514 kts | 122° |
| 2026-04-27 20:03 | 23.68072 | -93.74331 | 34897 ft | 515 kts | 122° |
| 2026-04-27 20:04 | 23.64251 | -93.67683 | 34898 ft | 513 kts | 122° |
| 2026-04-27 20:04 | 23.60441 | -93.61062 | 34901 ft | 513 kts | 121° |
| 2026-04-27 20:05 | 23.56656 | -93.54494 | 34911 ft | 515 kts | 122° |
| 2026-04-27 20:05 | 23.52822 | -93.47849 | 34911 ft | 515 kts | 121° |
| 2026-04-27 20:06 | 23.48993 | -93.41222 | 34912 ft | 514 kts | 122° |
| 2026-04-27 20:06 | 23.45194 | -93.34655 | 34916 ft | 514 kts | 122° |
| 2026-04-27 20:07 | 23.41379 | -93.28069 | 34908 ft | 514 kts | 122° |
| 2026-04-27 20:07 | 23.37532 | -93.21437 | 34905 ft | 514 kts | 122° |
| 2026-04-27 20:08 | 23.33694 | -93.14830 | 34911 ft | 514 kts | 122° |
| 2026-04-27 20:08 | 23.29901 | -93.08306 | 34906 ft | 514 kts | 122° |
| 2026-04-27 20:09 | 23.26083 | -93.01750 | 34912 ft | 513 kts | 122° |
| 2026-04-27 20:09 | 23.22252 | -92.95180 | 34913 ft | 514 kts | 121° |
| 2026-04-27 20:10 | 23.18428 | -92.88630 | 34914 ft | 513 kts | 122° |
| 2026-04-27 20:10 | 23.14575 | -92.82039 | 34916 ft | 513 kts | 121° |
| 2026-04-27 20:11 | 23.10756 | -92.75513 | 34917 ft | 512 kts | 121° |
| 2026-04-27 20:11 | 23.07005 | -92.69112 | 34916 ft | 512 kts | 121° |
| 2026-04-27 20:12 | 23.03178 | -92.62589 | 34919 ft | 512 kts | 121° |
| 2026-04-27 20:12 | 22.99336 | -92.56051 | 34917 ft | 512 kts | 121° |
| 2026-04-27 20:13 | 22.95498 | -92.49526 | 34917 ft | 511 kts | 121° |
| 2026-04-27 20:13 | 22.91782 | -92.43217 | 34914 ft | 512 kts | 121° |
| 2026-04-27 20:14 | 22.87955 | -92.36728 | 34904 ft | 511 kts | 121° |
| 2026-04-27 20:14 | 22.84117 | -92.30228 | 34900 ft | 510 kts | 122° |
| 2026-04-27 20:15 | 22.80273 | -92.23726 | 34898 ft | 511 kts | 121° |
| 2026-04-27 20:15 | 22.76454 | -92.17274 | 34900 ft | 511 kts | 121° |
| 2026-04-27 20:16 | 22.72621 | -92.10806 | 34901 ft | 508 kts | 121° |
| 2026-04-27 20:16 | 22.68790 | -92.04350 | 34901 ft | 510 kts | 121° |
| 2026-04-27 20:17 | 22.64931 | -91.97855 | 34902 ft | 510 kts | 121° |
| 2026-04-27 20:17 | 22.61087 | -91.91392 | 34904 ft | 510 kts | 121° |
| 2026-04-27 20:18 | 22.57227 | -91.84911 | 34905 ft | 510 kts | 121° |
| 2026-04-27 20:18 | 22.53397 | -91.78488 | 34905 ft | 509 kts | 121° |
| 2026-04-27 20:19 | 22.49551 | -91.72046 | 34903 ft | 509 kts | 121° |
| 2026-04-27 20:19 | 22.45472 | -91.65784 | 34908 ft | 511 kts | 131° |
| 2026-04-27 20:20 | 22.40035 | -91.60889 | 34911 ft | 511 kts | 150° |
| 2026-04-27 20:20 | 22.33615 | -91.57639 | 34903 ft | 510 kts | 158° |
| 2026-04-27 20:21 | 22.27020 | -91.54675 | 34899 ft | 509 kts | 159° |
| 2026-04-27 20:21 | 22.20447 | -91.51784 | 34903 ft | 509 kts | 159° |
| 2026-04-27 20:22 | 22.14010 | -91.48978 | 34904 ft | 508 kts | 159° |
| 2026-04-27 20:22 | 22.07423 | -91.46115 | 34908 ft | 509 kts | 159° |
| 2026-04-27 20:23 | 22.00816 | -91.43243 | 34905 ft | 510 kts | 159° |
| 2026-04-27 20:23 | 21.94266 | -91.40407 | 34904 ft | 509 kts | 159° |
| 2026-04-27 20:24 | 21.87686 | -91.37563 | 34891 ft | 509 kts | 159° |
| 2026-04-27 20:24 | 21.81064 | -91.34705 | 34893 ft | 510 kts | 159° |
| 2026-04-27 20:25 | 21.74462 | -91.31859 | 34891 ft | 510 kts | 159° |
| 2026-04-27 20:25 | 21.67995 | -91.29071 | 34890 ft | 510 kts | 159° |
| 2026-04-27 20:26 | 21.61432 | -91.26241 | 34886 ft | 509 kts | 159° |
| 2026-04-27 20:26 | 21.54848 | -91.23405 | 34887 ft | 510 kts | 159° |
| 2026-04-27 20:27 | 21.48202 | -91.20544 | 34887 ft | 510 kts | 159° |
| 2026-04-27 20:27 | 21.41599 | -91.17705 | 34879 ft | 509 kts | 159° |
| 2026-04-27 20:28 | 21.34981 | -91.14862 | 34878 ft | 508 kts | 159° |
| 2026-04-27 20:28 | 21.29484 | -91.12503 | 34883 ft | 509 kts | 159° |
| 2026-04-27 20:29 | 21.21803 | -91.09210 | 34888 ft | 510 kts | 159° |
| 2026-04-27 20:29 | 21.15175 | -91.06372 | 34890 ft | 510 kts | 159° |
| 2026-04-27 20:30 | 21.08507 | -91.03521 | 34886 ft | 509 kts | 159° |
| 2026-04-27 20:30 | 21.01895 | -91.00697 | 34890 ft | 510 kts | 159° |
| 2026-04-27 20:31 | 20.95428 | -90.97938 | 34888 ft | 509 kts | 159° |
| 2026-04-27 20:31 | 20.88828 | -90.95125 | 34883 ft | 510 kts | 159° |
| 2026-04-27 20:32 | 20.82188 | -90.92297 | 34858 ft | 508 kts | 159° |
| 2026-04-27 20:32 | 20.75623 | -90.89504 | 34866 ft | 508 kts | 159° |
| 2026-04-27 20:33 | 20.69010 | -90.86694 | 34868 ft | 507 kts | 159° |
| 2026-04-27 20:33 | 20.62444 | -90.83907 | 34862 ft | 508 kts | 159° |
| 2026-04-27 20:34 | 20.55845 | -90.81107 | 34858 ft | 508 kts | 159° |
| 2026-04-27 20:34 | 20.49259 | -90.78316 | 34850 ft | 506 kts | 159° |
| 2026-04-27 20:35 | 20.42810 | -90.75585 | 34845 ft | 507 kts | 159° |
| 2026-04-27 20:35 | 20.36395 | -90.72871 | 34845 ft | 507 kts | 159° |
| 2026-04-27 20:36 | 20.29932 | -90.70140 | 34847 ft | 508 kts | 159° |
| 2026-04-27 20:36 | 20.23312 | -90.67344 | 34840 ft | 507 kts | 159° |
| 2026-04-27 20:37 | 20.16753 | -90.64578 | 34831 ft | 507 kts | 159° |
| 2026-04-27 20:37 | 20.10176 | -90.61805 | 34837 ft | 506 kts | 159° |
| 2026-04-27 20:38 | 20.03614 | -90.59041 | 34837 ft | 505 kts | 158° |
| 2026-04-27 20:38 | 19.97036 | -90.56273 | 34846 ft | 505 kts | 159° |
| 2026-04-27 20:39 | 19.90406 | -90.53487 | 34843 ft | 507 kts | 159° |
| 2026-04-27 20:39 | 19.83989 | -90.50437 | 34849 ft | 505 kts | 148° |
| 2026-04-27 20:40 | 19.78459 | -90.45798 | 34847 ft | 505 kts | 136° |
| 2026-04-27 20:40 | 19.73246 | -90.40802 | 34837 ft | 504 kts | 136° |
| 2026-04-27 20:41 | 19.68007 | -90.35736 | 34831 ft | 504 kts | 136° |
| 2026-04-27 20:41 | 19.62843 | -90.30727 | 34820 ft | 503 kts | 136° |
| 2026-04-27 20:42 | 19.57637 | -90.25677 | 34818 ft | 505 kts | 136° |
| 2026-04-27 20:42 | 19.52437 | -90.20634 | 34817 ft | 505 kts | 136° |
| 2026-04-27 20:43 | 19.47243 | -90.15602 | 34827 ft | 504 kts | 136° |
| 2026-04-27 20:43 | 19.42062 | -90.10586 | 34833 ft | 504 kts | 136° |
| 2026-04-27 20:44 | 19.36899 | -90.05593 | 34839 ft | 502 kts | 136° |
| 2026-04-27 20:44 | 19.31729 | -90.00597 | 34843 ft | 503 kts | 136° |
| 2026-04-27 20:45 | 19.26549 | -89.95596 | 34840 ft | 503 kts | 136° |
| 2026-04-27 20:45 | 19.21340 | -89.90570 | 34843 ft | 502 kts | 136° |
| 2026-04-27 20:46 | 19.16165 | -89.85583 | 34835 ft | 501 kts | 136° |
| 2026-04-27 20:46 | 19.11359 | -89.80954 | 34842 ft | 501 kts | 136° |
| 2026-04-27 20:47 | 19.06226 | -89.76014 | 34848 ft | 501 kts | 136° |
| 2026-04-27 20:47 | 19.01082 | -89.71069 | 34851 ft | 501 kts | 136° |
| 2026-04-27 20:48 | 18.95862 | -89.66055 | 34864 ft | 501 kts | 136° |
| 2026-04-27 20:48 | 18.90728 | -89.61126 | 34864 ft | 500 kts | 136° |
| 2026-04-27 20:49 | 18.85531 | -89.56142 | 34878 ft | 500 kts | 136° |
| 2026-04-27 20:49 | 18.80368 | -89.51196 | 34884 ft | 501 kts | 136° |
| 2026-04-27 20:50 | 18.75188 | -89.46239 | 34883 ft | 500 kts | 136° |
| 2026-04-27 20:50 | 18.70028 | -89.41305 | 34886 ft | 499 kts | 136° |
| 2026-04-27 20:51 | 18.64855 | -89.36365 | 34878 ft | 500 kts | 136° |
| 2026-04-27 20:51 | 18.59689 | -89.31435 | 34885 ft | 499 kts | 136° |
| 2026-04-27 20:52 | 18.54507 | -89.26492 | 34892 ft | 500 kts | 137° |
| 2026-04-27 20:52 | 18.49356 | -89.21586 | 34885 ft | 499 kts | 136° |
| 2026-04-27 20:53 | 18.44187 | -89.16664 | 34890 ft | 499 kts | 137° |
| 2026-04-27 20:53 | 18.39001 | -89.11733 | 34888 ft | 499 kts | 136° |
| 2026-04-27 20:54 | 18.31235 | -89.04356 | 34892 ft | 499 kts | 136° |
| 2026-04-27 20:55 | 18.26080 | -88.99462 | 34897 ft | 499 kts | 136° |
| 2026-04-27 20:55 | 18.20911 | -88.94559 | 34889 ft | 499 kts | 136° |
| 2026-04-27 20:56 | 18.15724 | -88.89645 | 34888 ft | 498 kts | 136° |
| 2026-04-27 20:56 | 18.10557 | -88.84753 | 34880 ft | 499 kts | 136° |
| 2026-04-27 20:57 | 18.05401 | -88.79875 | 34883 ft | 500 kts | 136° |
| 2026-04-27 20:57 | 18.00197 | -88.74957 | 34881 ft | 499 kts | 136° |
| 2026-04-27 20:58 | 17.95034 | -88.70081 | 34882 ft | 497 kts | 136° |
| 2026-04-27 20:58 | 17.89856 | -88.65194 | 34884 ft | 496 kts | 136° |
| 2026-04-27 20:59 | 17.84706 | -88.60337 | 34883 ft | 497 kts | 136° |
| 2026-04-27 20:59 | 17.79519 | -88.55450 | 34885 ft | 496 kts | 136° |
| 2026-04-27 21:00 | 17.74560 | -88.50781 | 34892 ft | 498 kts | 136° |
| 2026-04-27 21:00 | 17.69384 | -88.45912 | 34887 ft | 498 kts | 137° |
| 2026-04-27 21:01 | 17.64209 | -88.41048 | 34880 ft | 490 kts | 137° |
| 2026-04-27 21:01 | 17.59292 | -88.36430 | 34620 ft | 487 kts | 137° |
| 2026-04-27 21:01 | 17.56616 | -88.34154 | 34002 ft | 495 kts | 144° |
| 2026-04-27 21:02 | 17.53663 | -88.32324 | 33430 ft | 497 kts | 154° |
| 2026-04-27 21:02 | 17.50453 | -88.30967 | 32779 ft | 499 kts | 163° |
| 2026-04-27 21:02 | 17.47054 | -88.30101 | 32072 ft | 500 kts | 170° |
| 2026-04-27 21:02 | 17.43600 | -88.29416 | 31339 ft | 501 kts | 169° |
| 2026-04-27 21:03 | 17.40166 | -88.28731 | 30619 ft | 502 kts | 170° |
| 2026-04-27 21:03 | 17.36734 | -88.28052 | 29940 ft | 502 kts | 170° |
| 2026-04-27 21:03 | 17.33251 | -88.27369 | 29273 ft | 503 kts | 170° |
| 2026-04-27 21:03 | 17.29834 | -88.26701 | 28644 ft | 503 kts | 169° |
| 2026-04-27 21:04 | 17.26381 | -88.26026 | 28058 ft | 498 kts | 169° |
| 2026-04-27 21:04 | 17.22943 | -88.25356 | 27515 ft | 493 kts | 169° |
| 2026-04-27 21:04 | 17.19591 | -88.24702 | 26922 ft | 488 kts | 169° |
| 2026-04-27 21:04 | 17.16279 | -88.24057 | 26381 ft | 483 kts | 169° |
| 2026-04-27 21:05 | 17.12964 | -88.23412 | 25805 ft | 478 kts | 169° |
| 2026-04-27 21:05 | 17.09668 | -88.22757 | 25198 ft | 474 kts | 168° |
| 2026-04-27 21:05 | 17.06429 | -88.22113 | 24622 ft | 470 kts | 168° |
| 2026-04-27 21:05 | 17.03242 | -88.21479 | 24057 ft | 465 kts | 168° |
| 2026-04-27 21:06 | 17.00034 | -88.20841 | 23485 ft | 460 kts | 168° |
| 2026-04-27 21:06 | 16.96887 | -88.20216 | 22928 ft | 455 kts | 168° |
| 2026-04-27 21:06 | 16.93781 | -88.19599 | 22372 ft | 450 kts | 168° |
| 2026-04-27 21:06 | 16.90708 | -88.18990 | 21885 ft | 443 kts | 168° |
| 2026-04-27 21:07 | 16.87722 | -88.18399 | 21589 ft | 434 kts | 168° |
| 2026-04-27 21:07 | 16.84733 | -88.17834 | 21170 ft | 436 kts | 168° |
| 2026-04-27 21:07 | 16.81740 | -88.17267 | 20639 ft | 436 kts | 168° |
| 2026-04-27 21:07 | 16.78722 | -88.16697 | 20089 ft | 432 kts | 168° |
| 2026-04-27 21:08 | 16.75788 | -88.16142 | 19562 ft | 428 kts | 168° |
| 2026-04-27 21:08 | 16.72870 | -88.15591 | 19017 ft | 423 kts | 168° |
| 2026-04-27 21:08 | 16.69960 | -88.15042 | 18525 ft | 418 kts | 168° |
| 2026-04-27 21:08 | 16.67125 | -88.14507 | 18069 ft | 416 kts | 168° |
| 2026-04-27 21:09 | 16.64258 | -88.13965 | 17605 ft | 414 kts | 167° |
| 2026-04-27 21:09 | 16.61435 | -88.13432 | 17128 ft | 409 kts | 167° |
| 2026-04-27 21:09 | 16.58613 | -88.12900 | 16680 ft | 409 kts | 167° |
| 2026-04-27 21:09 | 16.56001 | -88.12407 | 16264 ft | 405 kts | 167° |
| 2026-04-27 21:10 | 16.53234 | -88.11885 | 15829 ft | 403 kts | 167° |
| 2026-04-27 21:10 | 16.50446 | -88.11360 | 15353 ft | 401 kts | 167° |
| 2026-04-27 21:10 | 16.47699 | -88.10843 | 14871 ft | 397 kts | 167° |
| 2026-04-27 21:10 | 16.44994 | -88.10333 | 14422 ft | 396 kts | 167° |
| 2026-04-27 21:11 | 16.42273 | -88.09821 | 13973 ft | 392 kts | 167° |
| 2026-04-27 21:11 | 16.39577 | -88.09313 | 13491 ft | 388 kts | 167° |
| 2026-04-27 21:11 | 16.36932 | -88.08815 | 13040 ft | 386 kts | 167° |
| 2026-04-27 21:11 | 16.34277 | -88.08315 | 12573 ft | 382 kts | 167° |
| 2026-04-27 21:12 | 16.31671 | -88.07825 | 12119 ft | 379 kts | 167° |
| 2026-04-27 21:12 | 16.29071 | -88.07336 | 11657 ft | 376 kts | 167° |
| 2026-04-27 21:12 | 16.26470 | -88.06847 | 11214 ft | 373 kts | 167° |
| 2026-04-27 21:12 | 16.23915 | -88.06367 | 10791 ft | 370 kts | 167° |
| 2026-04-27 21:13 | 16.21462 | -88.05906 | 10508 ft | 362 kts | 167° |
| 2026-04-27 21:13 | 16.19123 | -88.05469 | 10421 ft | 341 kts | 167° |
| 2026-04-27 21:13 | 16.16860 | -88.05046 | 10450 ft | 316 kts | 167° |
| 2026-04-27 21:13 | 16.14679 | -88.04635 | 10504 ft | 312 kts | 167° |
| 2026-04-27 21:14 | 16.12559 | -88.04205 | 10464 ft | 310 kts | 161° |
| 2026-04-27 21:14 | 16.10534 | -88.03416 | 10315 ft | 311 kts | 154° |
| 2026-04-27 21:14 | 16.08523 | -88.02544 | 9898 ft | 305 kts | 154° |
| 2026-04-27 21:14 | 16.06598 | -88.01713 | 9559 ft | 295 kts | 154° |
| 2026-04-27 21:15 | 16.04717 | -88.00895 | 9310 ft | 291 kts | 154° |
| 2026-04-27 21:15 | 16.02826 | -88.00070 | 8979 ft | 291 kts | 154° |
| 2026-04-27 21:15 | 16.01049 | -87.99295 | 8691 ft | 289 kts | 154° |
| 2026-04-27 21:15 | 15.99172 | -87.98476 | 8385 ft | 288 kts | 154° |
| 2026-04-27 21:16 | 15.97325 | -87.97670 | 8077 ft | 287 kts | 154° |
| 2026-04-27 21:16 | 15.95462 | -87.96858 | 7734 ft | 286 kts | 154° |
| 2026-04-27 21:16 | 15.93635 | -87.96060 | 7361 ft | 284 kts | 154° |
| 2026-04-27 21:16 | 15.91823 | -87.95270 | 7067 ft | 282 kts | 154° |
| 2026-04-27 21:17 | 15.90008 | -87.94479 | 6718 ft | 283 kts | 154° |
| 2026-04-27 21:17 | 15.88174 | -87.93678 | 6301 ft | 279 kts | 154° |
| 2026-04-27 21:17 | 15.86475 | -87.92817 | 6241 ft | 266 kts | 147° |
| 2026-04-27 21:17 | 15.84839 | -87.91851 | 5967 ft | 272 kts | 148° |
| 2026-04-27 21:18 | 15.83189 | -87.90891 | 5581 ft | 274 kts | 148° |
| 2026-04-27 21:18 | 15.81509 | -87.89914 | 5163 ft | 276 kts | 148° |
| 2026-04-27 21:18 | 15.79833 | -87.88940 | 4734 ft | 269 kts | 149° |
| 2026-04-27 21:18 | 15.78272 | -87.88036 | 4780 ft | 245 kts | 148° |
| 2026-04-27 21:19 | 15.76806 | -87.87183 | 4815 ft | 233 kts | 148° |
| 2026-04-27 21:19 | 15.75413 | -87.86373 | 4830 ft | 228 kts | 148° |
| 2026-04-27 21:19 | 15.74018 | -87.85561 | 4801 ft | 230 kts | 148° |
| 2026-04-27 21:20 | 15.71182 | -87.83895 | 4456 ft | 237 kts | 147° |
| 2026-04-27 21:20 | 15.69745 | -87.83050 | 4156 ft | 231 kts | 148° |
| 2026-04-27 21:20 | 15.68345 | -87.82224 | 3913 ft | 231 kts | 148° |
| 2026-04-27 21:20 | 15.66951 | -87.81403 | 3606 ft | 231 kts | 148° |
| 2026-04-27 21:21 | 15.65529 | -87.80565 | 3310 ft | 230 kts | 148° |
| 2026-04-27 21:21 | 15.64143 | -87.79748 | 3034 ft | 229 kts | 148° |
| 2026-04-27 21:21 | 15.62717 | -87.79007 | 2733 ft | 231 kts | 163° |
| 2026-04-27 21:21 | 15.61126 | -87.78922 | 2539 ft | 227 kts | 189° |
| 2026-04-27 21:22 | 15.59781 | -87.79661 | 2523 ft | 211 kts | 222° |
| 2026-04-27 21:22 | 15.58738 | -87.80663 | 2494 ft | 198 kts | 222° |
| 2026-04-27 21:22 | 15.57723 | -87.81553 | 2524 ft | 185 kts | 219° |
| 2026-04-27 21:22 | 15.56710 | -87.82420 | 2525 ft | 190 kts | 220° |
| 2026-04-27 21:23 | 15.55664 | -87.83330 | 2398 ft | 201 kts | 220° |
| 2026-04-27 21:23 | 15.54591 | -87.84263 | 2139 ft | 192 kts | 220° |
| 2026-04-27 21:23 | 15.53595 | -87.85128 | 1894 ft | 186 kts | 220° |
| 2026-04-27 21:23 | 15.52580 | -87.86010 | 1663 ft | 190 kts | 220° |
| 2026-04-27 21:24 | 15.51574 | -87.86884 | 1421 ft | 184 kts | 220° |
| 2026-04-27 21:24 | 15.50643 | -87.87688 | 1183 ft | 163 kts | 220° |
| 2026-04-27 21:24 | 15.49769 | -87.88412 | 934 ft | 157 kts | 219° |
| 2026-04-27 21:24 | 15.48924 | -87.89130 | 736 ft | 156 kts | 221° |
| 2026-04-27 21:25 | 15.48096 | -87.89861 | 576 ft | 157 kts | 223° |
| 2026-04-27 21:25 | 15.47259 | -87.90599 | 423 ft | 158 kts | 221° |
| 2026-04-27 21:25 | 15.46405 | -87.91349 | 208 ft | 159 kts | 222° |
| 2026-04-27 21:25 | 15.45564 | -87.92087 | 115 ft | 154 kts | 222° |
| 2026-04-27 21:26 | 15.44847 | -87.92722 | 117 ft | 95 kts | 220° |
| 2026-04-27 21:26 | 15.44607 | -87.92926 | 119 ft | 32 kts | 221° |
| 2026-04-27 21:26 | 15.44519 | -87.93040 | 118 ft | 7 kts | 288° |
| 2026-04-27 21:26 | 15.44556 | -87.93093 | 118 ft | 10 kts | 325° |
| 2026-04-27 21:27 | 15.44637 | -87.93064 | 117 ft | 15 kts | 39° |
| 2026-04-27 21:27 | 15.44758 | -87.92958 | 116 ft | 28 kts | 40° |
| 2026-04-27 21:27 | 15.44908 | -87.92829 | 116 ft | 27 kts | 40° |
| 2026-04-27 21:27 | 15.45052 | -87.92705 | 116 ft | 25 kts | 39° |
| 2026-04-27 21:28 | 15.45187 | -87.92585 | 116 ft | 24 kts | 40° |
| 2026-04-27 21:28 | 15.45314 | -87.92474 | 114 ft | 23 kts | 40° |
| 2026-04-27 21:28 | 15.45438 | -87.92366 | 114 ft | 22 kts | 39° |
| 2026-04-27 21:28 | 15.45574 | -87.92245 | 114 ft | 36 kts | 40° |
| 2026-04-27 21:29 | 15.45749 | -87.92094 | 112 ft | 14 kts | 40° |
| 2026-04-27 21:29 | 15.45931 | -87.91935 | 112 ft | 39 kts | 39° |
| 2026-04-27 21:29 | 15.46086 | -87.91800 | 110 ft | 21 kts | 40° |
| 2026-04-27 21:29 | 15.46144 | -87.91766 | 110 ft | 6 kts | 1° |
| 2026-04-27 21:30 | 15.46180 | -87.91789 | 110 ft | 6 kts | 311° |
| 2026-04-27 21:30 | 15.46212 | -87.91828 | 110 ft | 7 kts | 310° |
| 2026-04-27 21:30 | 15.46250 | -87.91883 | 110 ft | 11 kts | 293° |
| 2026-04-27 21:30 | 15.46238 | -87.91944 | 110 ft | 5 kts | 279° |
| 2026-04-27 21:31 | 15.46239 | -87.91949 | 110 ft | 1 kts | 286° |
| 2026-04-27 21:31 | 15.46251 | -87.91974 | 110 ft | 4 kts | 307° |
| 2026-04-27 21:31 | 15.46261 | -87.91988 | 110 ft | 0 kts | 309° |
| 2026-04-27 21:31 | 15.46260 | -87.91987 | 110 ft | 0 kts | 309° |